createdAt,value
2023-05-09T00:00:57.314Z,11.23
2023-05-09T00:03:43.137Z,11.93
2023-05-09T00:06:28.383Z,11.77
2023-05-09T00:09:13.653Z,10.48
2023-05-09T00:11:59.086Z,10.48
2023-05-09T00:14:45.553Z,11.05
2023-05-09T01:01:50.607Z,9.30
2023-05-09T01:04:35.672Z,10.05
2023-05-09T01:07:21.114Z,10.83
2023-05-09T01:10:06.585Z,9.77
2023-05-09T01:12:58.200Z,11.30
2023-05-09T01:47:23.467Z,8.65
2023-05-09T01:50:09.885Z,8.93
2023-05-09T01:52:56.087Z,8.80
2023-05-09T01:55:42.501Z,9.25
2023-05-09T01:58:28.094Z,12.43
2023-05-09T02:46:51.291Z,7.05
2023-05-09T02:49:36.646Z,9.10
2023-05-09T02:52:23.099Z,7.90
2023-05-09T02:55:09.562Z,10.00
2023-05-09T02:58:09.711Z,10.27
2023-05-09T03:48:22.910Z,11.63
2023-05-09T03:51:10.426Z,11.63
2023-05-09T03:53:58.271Z,7.03
2023-05-09T03:56:43.941Z,8.93
2023-05-09T03:59:29.262Z,7.63
2023-05-09T04:46:34.525Z,8.40
2023-05-09T04:49:21.015Z,9.35
2023-05-09T04:52:07.059Z,7.45
2023-05-09T04:54:52.237Z,6.30
2023-05-09T04:57:40.370Z,8.15
2023-05-09T05:00:25.577Z,7.53
2023-05-09T05:03:10.865Z,8.98
2023-05-09T05:05:56.210Z,7.75
2023-05-09T05:08:42.025Z,9.47
2023-05-09T05:11:27.955Z,8.85
2023-05-09T05:14:13.743Z,7.05
2023-05-09T05:16:59.205Z,9.05
2023-05-09T05:19:44.601Z,7.85
2023-05-09T05:22:32.674Z,6.30
2023-05-09T05:25:18.624Z,7.72
2023-05-09T05:28:05.798Z,7.63
2023-05-09T05:30:51.194Z,6.60
2023-05-09T05:33:36.685Z,8.80
2023-05-09T05:36:22.032Z,7.07
2023-05-09T05:39:07.480Z,5.55
2023-05-09T05:41:53.101Z,6.65
2023-05-09T05:44:38.581Z,6.60
2023-05-09T05:47:24.765Z,5.95
2023-05-09T05:50:11.992Z,7.27
2023-05-09T05:52:58.282Z,9.25
2023-05-09T05:55:45.942Z,8.55
2023-05-09T05:58:31.639Z,5.45
2023-05-09T06:01:17.260Z,6.03
2023-05-09T06:04:02.709Z,7.17
2023-05-09T06:06:50.613Z,9.70
2023-05-09T06:09:35.709Z,7.03
2023-05-09T06:12:21.035Z,6.70
2023-05-09T06:15:06.619Z,7.88
2023-05-09T06:17:55.662Z,8.07
2023-05-09T06:20:40.892Z,6.55
2023-05-09T06:23:25.886Z,7.80
2023-05-09T06:26:12.228Z,6.60
2023-05-09T06:28:57.679Z,6.13
2023-05-09T06:31:42.736Z,7.03
2023-05-09T06:34:28.126Z,8.35
2023-05-09T06:37:13.604Z,7.13
2023-05-09T06:40:00.181Z,7.03
2023-05-09T06:42:45.616Z,6.47
2023-05-09T06:45:31.131Z,7.47
2023-05-09T06:48:16.343Z,9.43
2023-05-09T06:51:01.428Z,10.20
2023-05-09T06:53:46.943Z,7.55
2023-05-09T06:56:32.311Z,8.43
2023-05-09T06:59:17.692Z,6.87
2023-05-09T07:02:02.965Z,5.57
2023-05-09T07:04:48.565Z,7.88
2023-05-09T07:07:33.802Z,9.05
2023-05-09T07:10:18.746Z,7.15
2023-05-09T07:13:04.390Z,8.33
2023-05-09T07:15:49.543Z,6.60
2023-05-09T07:18:35.180Z,7.05
2023-05-09T07:21:20.271Z,5.40
2023-05-09T07:24:06.050Z,7.15
2023-05-09T07:26:51.202Z,6.60
2023-05-09T07:29:36.578Z,5.85
2023-05-09T07:32:22.036Z,6.45
2023-05-09T07:35:07.066Z,6.90
2023-05-09T07:37:52.295Z,6.40
2023-05-09T07:40:38.731Z,6.87
2023-05-09T07:43:24.154Z,6.25
2023-05-09T07:46:09.964Z,5.70
2023-05-09T07:48:55.233Z,5.22
2023-05-09T07:51:41.347Z,5.68
2023-05-09T07:54:26.851Z,5.33
2023-05-09T07:57:12.133Z,6.35
2023-05-09T07:59:57.413Z,5.35
2023-05-09T08:02:42.731Z,5.10
2023-05-09T08:05:27.837Z,5.05
2023-05-09T08:08:12.700Z,6.03
2023-05-09T08:10:57.717Z,7.57
2023-05-09T08:13:43.169Z,5.07
2023-05-09T08:16:28.511Z,5.88
2023-05-09T08:19:13.981Z,6.57
2023-05-09T08:22:00.581Z,7.23
2023-05-09T08:24:46.485Z,4.93
2023-05-09T08:27:31.549Z,6.15
2023-05-09T08:30:17.132Z,4.60
2023-05-09T08:33:02.650Z,6.88
2023-05-09T08:35:51.873Z,4.47
2023-05-09T08:38:39.171Z,5.75
2023-05-09T08:41:28.123Z,5.38
2023-05-09T08:44:13.506Z,5.35
2023-05-09T08:46:59.590Z,6.70
2023-05-09T08:49:45.474Z,5.23
2023-05-09T08:52:33.961Z,7.35
2023-05-09T08:55:19.217Z,5.70
2023-05-09T08:58:04.800Z,5.50
2023-05-09T09:00:50.724Z,6.22
2023-05-09T09:03:37.202Z,6.57
2023-05-09T09:06:23.380Z,5.75
2023-05-09T09:09:09.138Z,4.90
2023-05-09T09:11:55.449Z,5.25
2023-05-09T09:14:45.145Z,5.05
2023-05-09T09:17:31.073Z,5.27
2023-05-09T09:20:18.416Z,6.15
2023-05-09T09:23:04.770Z,4.85
2023-05-09T09:25:59.495Z,5.75
2023-05-09T09:28:45.283Z,7.82
2023-05-09T09:31:31.729Z,5.80
2023-05-09T09:34:20.421Z,5.72
2023-05-09T09:37:06.490Z,4.75
2023-05-09T09:39:55.694Z,4.63
2023-05-09T09:42:42.875Z,5.00
2023-05-09T09:45:28.360Z,5.60
2023-05-09T09:48:13.862Z,4.72
2023-05-09T09:51:04.082Z,5.55
2023-05-09T09:53:49.188Z,4.65
2023-05-09T09:56:40.661Z,5.10
2023-05-09T09:59:26.721Z,5.40
2023-05-09T10:02:12.558Z,5.35
2023-05-09T10:05:06.542Z,6.32
2023-05-09T10:08:02.173Z,5.05
2023-05-09T10:10:47.227Z,5.63
2023-05-09T10:13:34.460Z,6.03
2023-05-09T10:16:28.559Z,5.72
2023-05-09T10:19:22.002Z,5.20
2023-05-09T10:22:10.159Z,4.97
2023-05-09T10:25:01.494Z,5.70
2023-05-09T10:27:47.814Z,4.97
2023-05-09T10:30:35.896Z,4.60
2023-05-09T10:33:24.374Z,4.38
2023-05-09T10:36:10.514Z,5.95
2023-05-09T10:38:56.368Z,5.55
2023-05-09T10:41:41.979Z,5.87
2023-05-09T10:44:27.554Z,5.85
2023-05-09T10:47:13.330Z,5.25
2023-05-09T10:49:58.569Z,5.40
2023-05-09T10:53:03.833Z,6.43
2023-05-09T10:56:00.383Z,6.23
2023-05-09T10:58:48.023Z,5.75
2023-05-09T11:01:38.980Z,5.05
2023-05-09T11:04:24.232Z,5.15
2023-05-09T11:07:23.214Z,5.60
2023-05-09T11:10:11.819Z,5.20
2023-05-09T11:12:58.467Z,5.32
2023-05-09T11:16:02.124Z,5.03
2023-05-09T11:18:52.108Z,5.40
2023-05-09T11:21:37.490Z,5.63
2023-05-09T11:24:22.557Z,4.37
2023-05-09T11:27:24.238Z,4.95
2023-05-09T11:30:11.068Z,4.55
2023-05-09T11:32:58.916Z,5.75
2023-05-09T11:35:44.609Z,5.72
2023-05-09T11:38:40.468Z,4.23
2023-05-09T11:41:27.011Z,4.88
2023-05-09T11:44:21.694Z,4.38
2023-05-09T11:47:07.409Z,5.00
2023-05-09T11:49:53.537Z,5.03
2023-05-09T11:52:39.403Z,5.10
2023-05-09T11:55:25.861Z,4.55
2023-05-09T11:58:11.037Z,4.97
2023-05-09T12:00:57.463Z,5.28
2023-05-09T12:03:46.035Z,4.65
2023-05-09T12:06:32.939Z,4.53
2023-05-09T12:09:19.994Z,6.07
2023-05-09T12:12:08.953Z,5.50
2023-05-09T12:14:54.680Z,4.72
2023-05-09T12:17:40.734Z,5.50
2023-05-09T12:20:26.003Z,5.60
2023-05-09T12:23:12.592Z,5.65
2023-05-09T12:25:58.124Z,5.72
2023-05-09T12:28:43.567Z,4.57
2023-05-09T12:31:29.237Z,5.65
2023-05-09T12:34:14.923Z,5.63
2023-05-09T12:37:03.524Z,4.97
2023-05-09T12:40:00.756Z,5.40
2023-05-09T12:42:46.522Z,4.53
2023-05-09T12:45:32.972Z,5.30
2023-05-09T12:48:18.468Z,4.40
2023-05-09T12:51:04.957Z,6.10
2023-05-09T12:53:50.384Z,5.88
2023-05-09T12:56:35.939Z,4.60
2023-05-09T12:59:22.567Z,6.05
2023-05-09T13:02:07.832Z,4.83
2023-05-09T13:05:12.872Z,4.63
2023-05-09T13:07:58.304Z,5.88
2023-05-09T13:10:43.689Z,5.47
2023-05-09T13:13:29.363Z,5.20
2023-05-09T13:16:16.799Z,5.13
2023-05-09T13:19:05.268Z,4.85
2023-05-09T13:21:50.605Z,5.22
2023-05-09T13:24:35.890Z,4.53
2023-05-09T13:27:21.277Z,5.32
2023-05-09T13:30:09.805Z,4.77
2023-05-09T13:32:54.631Z,5.20
2023-05-09T13:35:40.187Z,5.55
2023-05-09T13:38:26.111Z,6.13
2023-05-09T13:41:12.521Z,7.28
2023-05-09T13:43:57.560Z,4.63
2023-05-09T13:46:43.083Z,5.30
2023-05-09T13:49:28.727Z,6.10
2023-05-09T13:52:15.739Z,5.05
2023-05-09T13:55:01.151Z,4.95
2023-05-09T13:57:46.694Z,5.30
2023-05-09T14:00:31.762Z,4.47
2023-05-09T14:03:17.199Z,4.80
2023-05-09T14:06:02.564Z,4.72
2023-05-09T14:08:47.844Z,3.80
2023-05-09T14:11:33.704Z,4.80
2023-05-09T14:14:19.198Z,5.03
2023-05-09T14:17:04.938Z,5.43
2023-05-09T14:19:49.967Z,4.40
2023-05-09T14:22:35.454Z,5.40
2023-05-09T14:25:22.544Z,5.53
2023-05-09T14:28:09.434Z,5.50
2023-05-09T14:30:55.274Z,5.68
2023-05-09T14:33:40.794Z,4.65
2023-05-09T14:36:26.977Z,5.13
2023-05-09T14:39:12.801Z,6.10
2023-05-09T14:41:57.922Z,6.90
2023-05-09T14:44:43.350Z,5.32
2023-05-09T14:47:28.666Z,5.68
2023-05-09T14:50:15.905Z,5.78
2023-05-09T14:53:02.057Z,5.67
2023-05-09T14:55:47.403Z,6.22
2023-05-09T14:58:34.324Z,5.35
2023-05-09T15:01:19.735Z,5.25
2023-05-09T15:04:05.235Z,4.75
2023-05-09T15:06:50.609Z,7.70
2023-05-09T15:09:35.797Z,6.05
2023-05-09T15:12:21.102Z,6.03
2023-05-09T15:15:23.573Z,4.80
2023-05-09T15:18:13.273Z,7.28
2023-05-09T15:20:58.768Z,6.67
2023-05-09T15:23:44.289Z,6.55
2023-05-09T15:26:30.066Z,7.45
2023-05-09T15:29:15.277Z,7.22
2023-05-09T15:32:00.949Z,6.13
2023-05-09T15:34:46.533Z,7.13
2023-05-09T15:37:33.281Z,6.50
2023-05-09T15:40:19.797Z,6.22
2023-05-09T15:43:08.115Z,5.35
2023-05-09T15:45:55.609Z,6.45
2023-05-09T15:48:41.098Z,5.43
2023-05-09T15:51:26.253Z,5.68
2023-05-09T15:54:11.566Z,8.65
2023-05-09T15:56:56.858Z,6.65
2023-05-09T15:59:42.365Z,6.05
2023-05-09T16:02:28.559Z,6.30
2023-05-09T16:05:14.202Z,5.50
2023-05-09T16:07:59.694Z,8.77
2023-05-09T16:10:48.885Z,5.75
2023-05-09T16:13:35.780Z,4.40
2023-05-09T16:16:21.528Z,5.67
2023-05-09T16:19:06.888Z,5.50
2023-05-09T16:21:52.584Z,5.30
2023-05-09T16:24:37.915Z,5.60
2023-05-09T16:27:23.274Z,6.07
2023-05-09T16:30:09.182Z,6.63
2023-05-09T16:32:54.047Z,4.70
2023-05-09T16:35:40.094Z,7.10
2023-05-09T16:38:25.434Z,5.28
2023-05-09T16:41:10.585Z,5.03
2023-05-09T16:43:56.505Z,5.13
2023-05-09T16:46:42.065Z,5.30
2023-05-09T16:49:27.144Z,6.90
2023-05-09T16:52:12.315Z,5.55
2023-05-09T16:54:59.299Z,5.20
2023-05-09T16:57:44.450Z,5.93
2023-05-09T17:00:29.297Z,5.40
2023-05-09T17:03:14.308Z,7.88
2023-05-09T17:05:59.355Z,8.68
2023-05-09T17:08:45.591Z,8.25
2023-05-09T17:11:30.955Z,9.23
2023-05-09T17:14:16.076Z,7.22
2023-05-09T17:17:00.968Z,5.05
2023-05-09T17:19:46.144Z,6.05
2023-05-09T17:22:31.113Z,5.32
2023-05-09T17:25:16.631Z,5.67
2023-05-09T17:28:01.814Z,6.78
2023-05-09T17:30:47.149Z,5.63
2023-05-09T17:33:32.033Z,4.85
2023-05-09T17:36:17.510Z,6.50
2023-05-09T17:39:02.347Z,5.77
2023-05-09T17:41:47.262Z,6.78
2023-05-09T17:44:32.294Z,5.57
2023-05-09T17:47:17.436Z,5.60
2023-05-09T17:50:02.504Z,6.10
2023-05-09T17:52:49.396Z,5.13
2023-05-09T17:55:34.253Z,5.28
2023-05-09T17:58:20.783Z,5.30
2023-05-09T18:01:06.834Z,4.80
2023-05-09T18:03:52.757Z,5.47
2023-05-09T18:06:38.142Z,8.67
2023-05-09T18:09:23.762Z,11.15
2023-05-09T18:12:09.848Z,11.00
2023-05-09T18:14:55.631Z,6.68
2023-05-09T18:17:40.938Z,8.90
2023-05-09T18:20:26.309Z,6.57
2023-05-09T18:23:11.550Z,7.47
2023-05-09T18:25:56.835Z,5.93
2023-05-09T18:28:41.655Z,9.65
2023-05-09T18:31:26.676Z,8.00
2023-05-09T18:34:12.973Z,7.27
2023-05-09T18:36:57.958Z,7.20
2023-05-09T18:39:43.044Z,7.35
2023-05-09T18:42:28.117Z,6.07
2023-05-09T18:45:13.898Z,7.88
2023-05-09T18:47:58.977Z,9.27
2023-05-09T18:50:44.735Z,5.32
2023-05-09T18:53:30.015Z,6.72
2023-05-09T18:56:14.894Z,6.93
2023-05-09T18:58:59.601Z,7.78
2023-05-09T19:01:44.634Z,8.20
2023-05-09T19:04:29.804Z,5.40
2023-05-09T19:07:15.118Z,7.18
2023-05-09T19:10:01.148Z,6.97
2023-05-09T19:12:46.606Z,8.88
2023-05-09T19:15:31.873Z,8.03
2023-05-09T19:18:16.717Z,10.13
2023-05-09T19:21:01.722Z,10.57
2023-05-09T19:23:49.092Z,7.47
2023-05-09T19:26:34.251Z,8.63
2023-05-09T19:29:18.989Z,10.03
2023-05-09T19:32:04.954Z,10.55
2023-05-09T19:34:50.085Z,10.85
2023-05-09T19:37:36.072Z,13.07
2023-05-09T19:40:21.636Z,11.32
2023-05-09T19:43:06.839Z,16.43
2023-05-09T19:45:51.622Z,13.65
2023-05-09T19:48:37.256Z,12.70
2023-05-09T19:51:22.689Z,17.63
2023-05-09T19:54:07.807Z,14.38
2023-05-09T19:56:53.058Z,15.87
2023-05-09T19:59:38.148Z,13.02
2023-05-09T20:02:23.899Z,15.85
2023-05-09T20:05:09.072Z,15.45
2023-05-09T20:07:54.389Z,11.38
2023-05-09T20:10:39.837Z,16.17
2023-05-09T20:13:24.727Z,13.65
2023-05-09T20:16:10.223Z,11.73
2023-05-09T20:18:55.624Z,14.50
2023-05-09T20:21:41.157Z,16.08
2023-05-09T20:24:26.450Z,20.37
2023-05-09T20:27:12.609Z,16.83
2023-05-09T20:29:57.776Z,13.70
2023-05-09T20:32:43.542Z,12.95
2023-05-09T20:35:28.551Z,14.55
2023-05-09T20:38:14.047Z,16.00
2023-05-09T20:40:59.378Z,13.05
2023-05-09T20:43:44.565Z,14.55
2023-05-09T20:46:30.539Z,12.55
2023-05-09T20:49:16.034Z,13.30
2023-05-09T20:52:00.869Z,12.23
2023-05-09T20:54:47.048Z,13.57
2023-05-09T20:57:32.242Z,12.10
2023-05-09T21:00:17.415Z,12.63
2023-05-09T21:03:02.737Z,13.25
2023-05-09T21:05:47.908Z,11.67
2023-05-09T21:08:33.496Z,10.00
2023-05-09T21:11:18.699Z,8.77
2023-05-09T21:14:03.887Z,10.27
2023-05-09T21:16:49.177Z,10.60
2023-05-09T21:19:34.196Z,10.00
2023-05-09T21:22:19.688Z,8.75
2023-05-09T21:25:04.709Z,11.07
2023-05-09T21:27:50.162Z,11.07
2023-05-09T21:30:35.328Z,9.10
2023-05-09T21:33:20.711Z,8.63
2023-05-09T21:36:06.296Z,9.52
2023-05-09T21:38:51.160Z,10.27
2023-05-09T21:41:37.235Z,8.45
2023-05-09T21:44:22.150Z,9.15
2023-05-09T21:47:07.132Z,10.90
2023-05-09T21:49:52.818Z,10.05
2023-05-09T21:52:37.937Z,9.88
2023-05-09T21:55:23.069Z,9.35
2023-05-09T21:58:08.143Z,10.43
2023-05-09T22:00:53.430Z,8.43
2023-05-09T22:03:38.525Z,8.98
2023-05-09T22:06:23.759Z,7.95
2023-05-09T22:09:09.261Z,9.02
2023-05-09T22:11:54.677Z,8.98
2023-05-09T22:14:52.681Z,9.67
2023-05-09T22:17:40.752Z,6.95
2023-05-09T22:20:26.165Z,7.55
2023-05-09T22:23:11.060Z,8.23
2023-05-09T22:25:55.825Z,10.13
2023-05-09T22:28:41.225Z,7.73
2023-05-09T22:31:26.319Z,8.85
2023-05-09T22:34:11.502Z,7.10
2023-05-09T22:36:56.564Z,10.02
2023-05-09T22:39:41.599Z,8.68
2023-05-09T22:42:26.858Z,7.67
2023-05-09T22:45:11.981Z,7.97
2023-05-09T22:47:57.586Z,7.72
2023-05-09T22:50:42.709Z,8.13
2023-05-09T22:53:28.148Z,7.22
2023-05-09T22:56:13.912Z,8.67
2023-05-09T22:58:58.921Z,7.43
2023-05-09T23:16:52.417Z,7.70
2023-05-09T23:19:37.919Z,8.98
2023-05-09T23:22:22.853Z,8.68
2023-05-09T23:25:08.091Z,6.47
2023-05-09T23:27:54.217Z,7.57
